sensor_id;sensor_type;location;lat;lon;timestamp;P1;durP1;ratioP1;P2;durP2;ratioP2
73872;SDS011;62206;47.568;9.364;2023-05-07T00:01:06;5.75;;;3.80;;
73872;SDS011;62206;47.568;9.364;2023-05-07T00:04:18;4.25;;;3.85;;
73872;SDS011;62206;47.568;9.364;2023-05-07T00:07:00;6.80;;;3.45;;
73872;SDS011;62206;47.568;9.364;2023-05-07T00:09:55;3.13;;;2.83;;
73872;SDS011;62206;47.568;9.364;2023-05-07T00:12:24;5.78;;;3.70;;
73872;SDS011;62206;47.568;9.364;2023-05-07T00:25:32;5.60;;;4.30;;
73872;SDS011;62206;47.568;9.364;2023-05-07T00:28:34;6.15;;;3.67;;
73872;SDS011;62206;47.568;9.364;2023-05-07T00:31:36;3.15;;;2.90;;
73872;SDS011;62206;47.568;9.364;2023-05-07T00:34:34;3.67;;;3.38;;
73872;SDS011;62206;47.568;9.364;2023-05-07T00:37:11;4.97;;;4.15;;
73872;SDS011;62206;47.568;9.364;2023-05-07T00:42:44;4.88;;;4.47;;
73872;SDS011;62206;47.568;9.364;2023-05-07T00:45:24;5.63;;;4.00;;
73872;SDS011;62206;47.568;9.364;2023-05-07T00:48:02;4.43;;;3.38;;
73872;SDS011;62206;47.568;9.364;2023-05-07T00:50:37;4.53;;;4.13;;
73872;SDS011;62206;47.568;9.364;2023-05-07T00:53:22;5.07;;;4.00;;
73872;SDS011;62206;47.568;9.364;2023-05-07T00:56:10;3.88;;;3.45;;
73872;SDS011;62206;47.568;9.364;2023-05-07T00:58:51;3.75;;;3.45;;
73872;SDS011;62206;47.568;9.364;2023-05-07T01:01:29;6.88;;;3.60;;
73872;SDS011;62206;47.568;9.364;2023-05-07T01:04:08;4.47;;;3.08;;
73872;SDS011;62206;47.568;9.364;2023-05-07T01:06:55;6.00;;;3.75;;
73872;SDS011;62206;47.568;9.364;2023-05-07T01:09:41;4.00;;;3.40;;
73872;SDS011;62206;47.568;9.364;2023-05-07T01:12:31;4.07;;;3.65;;
73872;SDS011;62206;47.568;9.364;2023-05-07T01:15:21;5.53;;;3.38;;
73872;SDS011;62206;47.568;9.364;2023-05-07T01:18:00;6.00;;;3.97;;
73872;SDS011;62206;47.568;9.364;2023-05-07T01:20:44;5.15;;;3.25;;
73872;SDS011;62206;47.568;9.364;2023-05-07T01:23:29;16.70;;;4.22;;
73872;SDS011;62206;47.568;9.364;2023-05-07T01:26:06;7.90;;;4.15;;
73872;SDS011;62206;47.568;9.364;2023-05-07T01:28:35;7.05;;;3.67;;
73872;SDS011;62206;47.568;9.364;2023-05-07T01:31:15;3.65;;;3.35;;
73872;SDS011;62206;47.568;9.364;2023-05-07T01:33:53;4.88;;;3.28;;
73872;SDS011;62206;47.568;9.364;2023-05-07T01:36:59;4.00;;;3.70;;
73872;SDS011;62206;47.568;9.364;2023-05-07T01:40:13;4.78;;;3.38;;
73872;SDS011;62206;47.568;9.364;2023-05-07T01:43:14;4.45;;;3.47;;
73872;SDS011;62206;47.568;9.364;2023-05-07T01:46:18;3.97;;;3.70;;
73872;SDS011;62206;47.568;9.364;2023-05-07T01:49:27;3.83;;;2.97;;
73872;SDS011;62206;47.568;9.364;2023-05-07T01:52:57;7.18;;;3.88;;
73872;SDS011;62206;47.568;9.364;2023-05-07T02:13:33;4.43;;;3.17;;
73872;SDS011;62206;47.568;9.364;2023-05-07T02:17:07;3.42;;;3.13;;
73872;SDS011;62206;47.568;9.364;2023-05-07T02:20:10;3.67;;;3.03;;
73872;SDS011;62206;47.568;9.364;2023-05-07T02:26:59;4.07;;;2.53;;
73872;SDS011;62206;47.568;9.364;2023-05-07T02:40:37;3.67;;;3.40;;
73872;SDS011;62206;47.568;9.364;2023-05-07T02:44:23;6.25;;;3.17;;
73872;SDS011;62206;47.568;9.364;2023-05-07T02:48:03;5.30;;;2.53;;
73872;SDS011;62206;47.568;9.364;2023-05-07T02:53:27;5.63;;;3.20;;
73872;SDS011;62206;47.568;9.364;2023-05-07T03:44:38;3.72;;;2.65;;
73872;SDS011;62206;47.568;9.364;2023-05-07T03:50:31;9.25;;;2.95;;
73872;SDS011;62206;47.568;9.364;2023-05-07T03:53:47;6.93;;;2.80;;
73872;SDS011;62206;47.568;9.364;2023-05-07T19:07:58;3.05;;;1.58;;
73872;SDS011;62206;47.568;9.364;2023-05-07T19:10:26;4.32;;;2.47;;
73872;SDS011;62206;47.568;9.364;2023-05-07T19:13:01;1.90;;;1.08;;
73872;SDS011;62206;47.568;9.364;2023-05-07T19:15:32;2.78;;;1.75;;
73872;SDS011;62206;47.568;9.364;2023-05-07T19:18:04;1.30;;;1.20;;
73872;SDS011;62206;47.568;9.364;2023-05-07T19:21:11;7.28;;;1.73;;
73872;SDS011;62206;47.568;9.364;2023-05-07T19:40:12;1.83;;;1.25;;
73872;SDS011;62206;47.568;9.364;2023-05-07T19:43:03;1.23;;;1.02;;
73872;SDS011;62206;47.568;9.364;2023-05-07T19:45:40;1.13;;;1.02;;
73872;SDS011;62206;47.568;9.364;2023-05-07T19:48:21;1.15;;;1.05;;
73872;SDS011;62206;47.568;9.364;2023-05-07T19:50:52;1.52;;;1.02;;
73872;SDS011;62206;47.568;9.364;2023-05-07T19:53:21;3.72;;;1.10;;
73872;SDS011;62206;47.568;9.364;2023-05-07T19:58:59;1.10;;;1.00;;
73872;SDS011;62206;47.568;9.364;2023-05-07T20:01:44;2.13;;;0.90;;
73872;SDS011;62206;47.568;9.364;2023-05-07T20:04:13;3.05;;;2.08;;
73872;SDS011;62206;47.568;9.364;2023-05-07T20:40:26;1.60;;;1.50;;
73872;SDS011;62206;47.568;9.364;2023-05-07T21:08:42;1.20;;;1.10;;
73872;SDS011;62206;47.568;9.364;2023-05-07T21:43:41;1.48;;;1.00;;
73872;SDS011;62206;47.568;9.364;2023-05-07T22:22:53;7.57;;;1.77;;
73872;SDS011;62206;47.568;9.364;2023-05-07T22:25:30;1.40;;;1.30;;
73872;SDS011;62206;47.568;9.364;2023-05-07T22:31:36;2.45;;;1.10;;
73872;SDS011;62206;47.568;9.364;2023-05-07T22:35:13;0.93;;;0.93;;
73872;SDS011;62206;47.568;9.364;2023-05-07T22:49:30;3.20;;;1.33;;
73872;SDS011;62206;47.568;9.364;2023-05-07T23:07:19;1.35;;;1.25;;
73872;SDS011;62206;47.568;9.364;2023-05-07T23:09:49;1.73;;;1.63;;
73872;SDS011;62206;47.568;9.364;2023-05-07T23:12:23;1.25;;;1.25;;
73872;SDS011;62206;47.568;9.364;2023-05-07T23:44:21;1.80;;;1.70;;
73872;SDS011;62206;47.568;9.364;2023-05-07T23:46:54;2.28;;;1.42;;
73872;SDS011;62206;47.568;9.364;2023-05-07T23:49:41;1.63;;;1.42;;
73872;SDS011;62206;47.568;9.364;2023-05-07T23:52:24;5.57;;;1.70;;
73872;SDS011;62206;47.568;9.364;2023-05-07T23:55:01;3.65;;;1.50;;
73872;SDS011;62206;47.568;9.364;2023-05-07T23:57:48;2.85;;;1.35;;
